createdAt,value
2024-05-09T00:00:36.109Z,30.50
2024-05-09T00:05:37.929Z,22.60
2024-05-09T00:08:05.492Z,34.05
2024-05-09T00:10:37.144Z,25.90
2024-05-09T00:13:07.203Z,28.85
2024-05-09T00:15:35.454Z,30.50
2024-05-09T00:18:03.519Z,27.50
2024-05-09T00:20:37.860Z,32.00
2024-05-09T00:23:12.314Z,27.50
2024-05-09T00:25:42.845Z,26.73
2024-05-09T00:28:10.040Z,29.15
2024-05-09T00:30:37.609Z,33.53
2024-05-09T00:33:06.843Z,28.23
2024-05-09T00:35:35.323Z,30.48
2024-05-09T00:38:02.427Z,26.60
2024-05-09T00:40:39.867Z,26.42
2024-05-09T00:43:10.125Z,29.42
2024-05-09T00:45:37.321Z,29.98
2024-05-09T00:48:07.558Z,29.05
2024-05-09T00:50:38.786Z,27.98
2024-05-09T00:53:08.190Z,29.10
2024-05-09T00:55:37.060Z,24.67
2024-05-09T00:58:05.520Z,30.60
2024-05-09T01:00:38.821Z,32.45
2024-05-09T01:03:13.045Z,31.30
2024-05-09T01:05:42.856Z,29.38
2024-05-09T01:08:11.725Z,31.38
2024-05-09T01:10:39.522Z,25.60
2024-05-09T01:13:07.799Z,36.72
2024-05-09T01:15:35.851Z,30.90
2024-05-09T01:18:07.654Z,30.45
2024-05-09T01:20:41.512Z,28.13
2024-05-09T01:23:12.048Z,31.55
2024-05-09T01:25:39.759Z,28.90
2024-05-09T01:28:07.160Z,25.80
2024-05-09T01:30:37.091Z,28.52
2024-05-09T01:33:09.969Z,29.23
2024-05-09T01:35:42.442Z,37.00
2024-05-09T01:38:18.834Z,33.45
2024-05-09T01:40:49.415Z,32.20
2024-05-09T01:43:18.262Z,31.33
2024-05-09T01:45:46.311Z,31.17
2024-05-09T01:48:15.403Z,27.02
2024-05-09T01:50:44.147Z,28.95
2024-05-09T01:53:18.486Z,27.25
2024-05-09T01:55:46.865Z,29.48
2024-05-09T01:58:15.275Z,29.10
2024-05-09T02:00:45.692Z,32.55
2024-05-09T02:03:17.633Z,29.70
2024-05-09T02:05:49.177Z,25.73
2024-05-09T02:08:23.871Z,24.83
2024-05-09T02:10:52.661Z,32.17
2024-05-09T02:13:24.321Z,31.00
2024-05-09T02:18:26.413Z,31.02
2024-05-09T02:20:54.645Z,31.08
2024-05-09T02:23:24.291Z,29.10
2024-05-09T02:25:51.841Z,27.15
2024-05-09T02:28:24.487Z,30.33
2024-05-09T02:30:54.890Z,27.83
2024-05-09T02:33:23.428Z,29.45
2024-05-09T02:35:50.643Z,32.78
2024-05-09T02:38:19.353Z,29.67
2024-05-09T02:40:46.941Z,27.52
2024-05-09T02:43:15.758Z,29.33
2024-05-09T02:45:44.814Z,30.83
2024-05-09T02:48:13.967Z,27.75
2024-05-09T02:50:42.196Z,31.85
2024-05-09T02:53:13.864Z,35.30
2024-05-09T02:55:47.163Z,29.17
2024-05-09T02:58:16.851Z,29.10
2024-05-09T03:00:44.768Z,28.70
2024-05-09T03:03:14.382Z,27.15
2024-05-09T03:05:49.264Z,35.40
2024-05-09T03:08:18.981Z,29.42
2024-05-09T03:10:47.534Z,31.70
2024-05-09T03:13:16.948Z,33.97
2024-05-09T03:15:46.234Z,30.02
2024-05-09T03:18:17.473Z,30.70
2024-05-09T03:20:47.178Z,29.58
2024-05-09T03:23:15.817Z,28.15
2024-05-09T03:25:43.770Z,27.52
2024-05-09T03:28:12.811Z,29.15
2024-05-09T03:30:44.392Z,25.50
2024-05-09T03:33:19.635Z,29.80
2024-05-09T03:35:49.459Z,24.85
2024-05-09T03:38:17.912Z,27.85
2024-05-09T03:40:51.439Z,28.27
2024-05-09T03:43:21.394Z,27.75
2024-05-09T03:45:52.891Z,28.48
2024-05-09T03:48:23.479Z,26.23
2024-05-09T03:50:51.566Z,28.25
2024-05-09T03:53:19.367Z,28.67
2024-05-09T03:55:49.103Z,25.23
2024-05-09T03:58:16.975Z,31.77
2024-05-09T04:00:45.026Z,28.80
2024-05-09T04:03:15.150Z,27.55
2024-05-09T04:05:44.967Z,29.35
2024-05-09T04:08:13.207Z,34.80
2024-05-09T04:10:42.530Z,30.67
2024-05-09T04:13:12.730Z,31.33
2024-05-09T04:15:40.880Z,29.50
2024-05-09T04:18:09.225Z,26.33
2024-05-09T04:20:40.494Z,29.15
2024-05-09T04:23:14.707Z,26.27
2024-05-09T04:25:45.321Z,26.77
2024-05-09T04:28:15.570Z,29.30
2024-05-09T04:30:45.170Z,26.63
2024-05-09T04:33:15.368Z,30.23
2024-05-09T04:38:12.197Z,33.80
2024-05-09T04:40:39.780Z,27.58
2024-05-09T04:43:16.191Z,29.48
2024-05-09T04:45:46.636Z,27.65
2024-05-09T04:48:15.680Z,30.35
2024-05-09T04:50:43.674Z,35.10
2024-05-09T04:53:17.359Z,29.52
2024-05-09T04:55:45.917Z,29.77
2024-05-09T04:58:13.654Z,29.15
2024-05-09T05:00:45.972Z,24.98
2024-05-09T05:03:24.844Z,29.50
2024-05-09T05:05:52.953Z,28.50
2024-05-09T05:08:21.583Z,27.65
2024-05-09T05:10:52.147Z,28.95
2024-05-09T05:13:24.509Z,26.63
2024-05-09T05:15:58.272Z,28.23
2024-05-09T05:18:28.550Z,29.65
2024-05-09T05:20:57.044Z,25.87
2024-05-09T05:23:53.575Z,27.05
2024-05-09T05:26:21.535Z,30.48
2024-05-09T05:28:49.739Z,28.25
2024-05-09T05:31:16.759Z,27.80
2024-05-09T05:33:44.854Z,27.98
2024-05-09T05:36:15.149Z,26.40
2024-05-09T05:38:43.463Z,26.77
2024-05-09T05:41:14.397Z,30.15
2024-05-09T05:43:41.706Z,27.90
2024-05-09T05:46:11.058Z,30.15
2024-05-09T05:48:39.379Z,34.28
2024-05-09T05:51:08.942Z,29.65
2024-05-09T05:53:37.862Z,31.40
2024-05-09T05:56:07.223Z,33.97
2024-05-09T05:58:36.053Z,34.90
2024-05-09T06:01:04.102Z,35.20
2024-05-09T06:03:32.835Z,35.40
2024-05-09T06:06:03.074Z,38.22
2024-05-09T06:08:32.279Z,33.35
2024-05-09T06:11:00.298Z,36.35
2024-05-09T06:13:27.747Z,35.45
2024-05-09T06:15:56.285Z,33.58
2024-05-09T06:18:24.556Z,41.80
2024-05-09T06:20:53.587Z,33.58
2024-05-09T06:23:21.772Z,31.73
2024-05-09T06:25:51.102Z,41.17
2024-05-09T06:28:23.782Z,32.75
2024-05-09T06:30:52.421Z,36.33
2024-05-09T06:33:20.913Z,35.28
2024-05-09T06:35:48.789Z,35.05
2024-05-09T06:38:16.628Z,35.20
2024-05-09T06:40:46.127Z,31.70
2024-05-09T06:43:18.784Z,31.33
2024-05-09T06:45:56.522Z,30.15
2024-05-09T06:48:24.036Z,41.40
2024-05-09T06:50:53.652Z,38.67
2024-05-09T06:53:26.495Z,32.27
2024-05-09T06:55:55.481Z,30.23
2024-05-09T06:58:23.752Z,33.60
2024-05-09T07:00:53.081Z,34.33
2024-05-09T07:03:22.086Z,31.27
2024-05-09T07:05:50.497Z,36.83
2024-05-09T07:08:18.695Z,33.22
2024-05-09T07:10:57.079Z,31.77
2024-05-09T07:13:25.760Z,31.85
2024-05-09T07:15:53.784Z,31.33
2024-05-09T07:18:21.188Z,31.48
2024-05-09T07:20:49.402Z,30.35
2024-05-09T07:23:17.850Z,33.08
2024-05-09T07:25:45.543Z,29.02
2024-05-09T07:28:14.843Z,30.52
2024-05-09T07:30:42.244Z,27.23
2024-05-09T07:33:09.290Z,32.50
2024-05-09T07:35:36.508Z,33.38
2024-05-09T07:38:03.805Z,32.53
2024-05-09T07:40:35.917Z,30.27
2024-05-09T07:43:05.107Z,32.03
2024-05-09T07:53:39.420Z,31.13
2024-05-09T07:56:10.265Z,34.03
2024-05-09T07:58:39.160Z,28.35
2024-05-09T08:01:06.616Z,25.95
2024-05-09T08:03:34.427Z,30.17
2024-05-09T08:06:01.621Z,30.02
2024-05-09T08:08:28.736Z,29.02
2024-05-09T08:10:55.719Z,28.40
2024-05-09T08:13:23.129Z,27.95
2024-05-09T08:15:51.752Z,22.77
2024-05-09T08:18:20.509Z,30.07
2024-05-09T08:20:49.183Z,26.33
2024-05-09T08:23:16.223Z,25.35
2024-05-09T08:25:43.233Z,24.98
2024-05-09T08:28:11.205Z,27.13
2024-05-09T08:30:38.668Z,28.90
2024-05-09T08:33:07.198Z,27.75
2024-05-09T08:35:35.598Z,30.40
2024-05-09T08:38:07.304Z,26.00
2024-05-09T08:40:36.969Z,31.35
2024-05-09T08:43:11.227Z,23.42
2024-05-09T08:45:44.415Z,23.83
2024-05-09T08:48:15.755Z,23.30
2024-05-09T08:50:43.782Z,21.75
2024-05-09T08:53:11.493Z,22.88
2024-05-09T08:55:41.974Z,22.85
2024-05-09T08:58:20.691Z,18.90
2024-05-09T09:00:48.899Z,20.92
2024-05-09T09:03:24.437Z,18.60
2024-05-09T09:06:00.370Z,21.48
2024-05-09T09:08:28.203Z,18.60
2024-05-09T09:10:58.199Z,20.10
2024-05-09T09:13:28.245Z,22.92
2024-05-09T09:15:59.038Z,22.73
2024-05-09T09:18:27.553Z,23.23
2024-05-09T09:20:55.319Z,28.45
2024-05-09T09:23:22.537Z,20.33
2024-05-09T09:25:50.379Z,16.02
2024-05-09T09:28:17.681Z,18.38
2024-05-09T09:30:45.959Z,20.58
2024-05-09T09:33:13.217Z,19.05
2024-05-09T09:35:42.138Z,20.58
2024-05-09T09:38:10.895Z,17.88
2024-05-09T09:40:46.813Z,18.13
2024-05-09T09:43:21.878Z,19.48
2024-05-09T09:45:51.810Z,22.45
2024-05-09T09:48:21.400Z,20.63
2024-05-09T09:50:52.189Z,18.67
2024-05-09T09:53:20.440Z,18.95
2024-05-09T09:55:48.550Z,18.20
2024-05-09T09:58:17.453Z,20.92
2024-05-09T10:00:45.607Z,17.33
2024-05-09T10:03:13.216Z,16.98
2024-05-09T10:05:43.996Z,25.85
2024-05-09T10:08:15.290Z,25.88
2024-05-09T10:10:46.750Z,17.27
2024-05-09T10:13:14.035Z,16.52
2024-05-09T10:15:51.964Z,14.57
2024-05-09T10:18:28.201Z,17.48
2024-05-09T10:20:57.939Z,26.00
2024-05-09T10:23:33.613Z,18.77
2024-05-09T10:26:02.971Z,16.95
2024-05-09T10:28:32.568Z,16.37
2024-05-09T10:31:13.641Z,15.50
2024-05-09T10:33:52.600Z,16.52
2024-05-09T10:36:20.304Z,21.92
2024-05-09T10:38:49.406Z,19.83
2024-05-09T10:41:16.997Z,26.85
2024-05-09T10:43:44.101Z,15.05
2024-05-09T10:46:11.754Z,15.18
2024-05-09T10:48:39.759Z,13.50
2024-05-09T10:51:08.123Z,15.63
2024-05-09T10:53:42.559Z,16.15
2024-05-09T10:56:10.310Z,16.20
2024-05-09T10:58:38.114Z,12.32
2024-05-09T11:01:09.405Z,13.55
2024-05-09T11:03:37.930Z,12.05
2024-05-09T11:06:06.991Z,11.15
2024-05-09T11:08:35.946Z,13.10
2024-05-09T11:11:07.797Z,14.90
2024-05-09T11:13:37.974Z,14.75
2024-05-09T11:16:21.053Z,11.77
2024-05-09T11:18:58.223Z,10.32
2024-05-09T11:21:25.997Z,11.63
2024-05-09T11:23:53.364Z,11.15
2024-05-09T11:26:22.435Z,15.82
2024-05-09T11:28:51.025Z,10.02
2024-05-09T11:31:18.575Z,11.80
2024-05-09T11:33:46.715Z,15.75
2024-05-09T11:36:14.840Z,13.07
2024-05-09T11:38:42.108Z,14.43
2024-05-09T11:41:09.343Z,10.52
2024-05-09T11:43:36.371Z,9.68
2024-05-09T11:46:04.092Z,12.90
2024-05-09T11:48:32.028Z,11.55
2024-05-09T11:50:59.204Z,11.77
2024-05-09T11:53:26.195Z,14.10
2024-05-09T11:55:53.437Z,15.85
2024-05-09T11:58:21.574Z,12.65
2024-05-09T12:00:48.698Z,11.23
2024-05-09T12:03:15.971Z,15.18
2024-05-09T12:05:43.184Z,13.73
2024-05-09T12:08:10.298Z,12.30
2024-05-09T12:10:37.777Z,35.08
2024-05-09T12:13:06.679Z,12.88
2024-05-09T12:15:38.576Z,10.77
2024-05-09T12:18:07.841Z,9.35
2024-05-09T12:20:38.504Z,9.65
2024-05-09T12:23:09.419Z,12.45
2024-05-09T12:25:39.420Z,8.48
2024-05-09T12:28:07.805Z,8.25
2024-05-09T12:30:38.909Z,8.95
2024-05-09T12:33:09.141Z,8.15
2024-05-09T12:35:36.698Z,9.63
2024-05-09T12:38:04.135Z,7.30
2024-05-09T12:40:36.277Z,8.45
2024-05-09T12:43:07.426Z,12.60
2024-05-09T12:45:35.558Z,10.45
2024-05-09T12:48:03.282Z,12.00
2024-05-09T12:50:33.289Z,13.02
2024-05-09T12:53:03.037Z,14.15
2024-05-09T12:55:37.316Z,11.20
2024-05-09T12:58:12.144Z,11.02
2024-05-09T13:00:39.486Z,7.68
2024-05-09T13:03:07.154Z,7.72
2024-05-09T13:05:34.476Z,10.40
2024-05-09T13:08:02.060Z,10.70
2024-05-09T13:10:32.613Z,8.50
2024-05-09T13:13:01.723Z,7.03
2024-05-09T13:15:30.765Z,7.80
2024-05-09T13:18:01.620Z,10.35
2024-05-09T13:20:34.213Z,8.88
2024-05-09T13:23:04.683Z,9.65
2024-05-09T13:25:32.367Z,5.82
2024-05-09T13:28:00.482Z,7.13
2024-05-09T13:30:35.578Z,9.52
2024-05-09T13:33:07.577Z,9.10
2024-05-09T13:35:35.593Z,10.27
2024-05-09T13:38:04.170Z,8.60
2024-05-09T13:40:34.779Z,6.40
2024-05-09T13:43:05.036Z,7.78
2024-05-09T13:45:33.275Z,21.27
2024-05-09T13:48:00.884Z,15.52
2024-05-09T13:50:34.612Z,19.05
2024-05-09T13:53:06.196Z,9.52
2024-05-09T13:55:35.155Z,6.03
2024-05-09T13:58:02.839Z,6.47
2024-05-09T14:02:59.859Z,8.52
2024-05-09T14:05:27.087Z,11.23
2024-05-09T14:07:54.111Z,9.70
2024-05-09T14:10:28.451Z,8.70
2024-05-09T14:12:58.049Z,6.00
2024-05-09T14:15:25.054Z,4.22
2024-05-09T14:17:52.058Z,4.15
2024-05-09T14:20:28.446Z,7.72
2024-05-09T14:22:58.696Z,6.32
2024-05-09T14:25:28.789Z,5.57
2024-05-09T14:28:00.269Z,8.13
2024-05-09T14:30:34.839Z,4.70
2024-05-09T14:33:06.398Z,6.43
2024-05-09T14:35:34.439Z,6.82
2024-05-09T14:38:01.429Z,4.00
2024-05-09T14:40:39.912Z,8.90
2024-05-09T14:43:15.000Z,6.72
2024-05-09T14:45:43.872Z,6.90
2024-05-09T14:48:12.082Z,9.02
2024-05-09T14:50:40.637Z,6.15
2024-05-09T14:53:10.169Z,6.23
2024-05-09T14:55:42.254Z,5.38
2024-05-09T14:58:11.401Z,10.57
2024-05-09T15:00:45.880Z,6.75
2024-05-09T15:03:18.458Z,5.90
2024-05-09T15:05:46.799Z,5.27
2024-05-09T15:08:13.903Z,7.30
2024-05-09T15:10:41.008Z,7.35
2024-05-09T15:13:10.330Z,5.60
2024-05-09T15:15:39.375Z,22.50
2024-05-09T15:18:07.144Z,14.32
2024-05-09T15:20:37.003Z,17.45
2024-05-09T15:23:05.407Z,29.30
2024-05-09T15:25:36.742Z,10.95
2024-05-09T15:28:07.368Z,5.45
2024-05-09T15:30:35.201Z,7.68
2024-05-09T15:33:07.338Z,5.90
2024-05-09T15:35:36.060Z,5.78
2024-05-09T15:38:04.132Z,6.95
2024-05-09T15:40:38.566Z,7.65
2024-05-09T15:43:10.215Z,10.80
2024-05-09T15:45:38.691Z,9.35
2024-05-09T15:48:07.625Z,9.18
2024-05-09T15:50:39.317Z,5.72
2024-05-09T15:53:10.117Z,7.70
2024-05-09T15:55:37.971Z,17.83
2024-05-09T15:58:05.848Z,10.63
2024-05-09T16:00:38.513Z,6.85
2024-05-09T16:03:10.010Z,12.15
2024-05-09T16:05:38.429Z,8.93
2024-05-09T16:08:06.591Z,8.25
2024-05-09T16:10:35.016Z,6.15
2024-05-09T16:13:03.493Z,7.78
2024-05-09T16:15:32.447Z,8.95
2024-05-09T16:18:01.011Z,10.13
2024-05-09T16:20:37.448Z,15.43
2024-05-09T16:23:08.852Z,13.02
2024-05-09T16:25:36.660Z,9.65
2024-05-09T16:28:08.579Z,7.22
2024-05-09T16:30:38.507Z,11.40
2024-05-09T16:33:06.647Z,10.38
2024-05-09T16:35:35.061Z,8.10
2024-05-09T16:38:03.354Z,7.43
2024-05-09T16:40:37.665Z,10.73
2024-05-09T16:43:08.074Z,14.52
2024-05-09T16:45:35.553Z,11.93
2024-05-09T16:48:02.824Z,10.00
2024-05-09T16:50:34.067Z,10.02
2024-05-09T16:53:04.394Z,9.32
2024-05-09T16:55:31.946Z,8.33
2024-05-09T16:57:59.157Z,11.18
2024-05-09T17:00:36.328Z,12.90
2024-05-09T17:03:14.135Z,15.18
2024-05-09T17:05:46.048Z,10.27
2024-05-09T17:08:15.411Z,12.18
2024-05-09T17:10:42.687Z,13.23
2024-05-09T17:13:10.191Z,9.73
2024-05-09T17:15:37.723Z,8.98
2024-05-09T17:18:07.406Z,12.40
2024-05-09T17:20:37.010Z,18.63
2024-05-09T17:23:12.646Z,10.52
2024-05-09T17:25:41.075Z,11.82
2024-05-09T17:28:09.670Z,11.93
2024-05-09T17:30:39.084Z,13.70
2024-05-09T17:33:09.624Z,16.38
2024-05-09T17:35:38.146Z,11.23
2024-05-09T17:38:06.587Z,11.25
2024-05-09T17:40:36.559Z,12.25
2024-05-09T17:43:06.783Z,9.95
2024-05-09T17:45:37.131Z,16.73
2024-05-09T17:48:05.043Z,12.95
2024-05-09T17:50:35.896Z,10.50
2024-05-09T17:53:08.588Z,10.50
2024-05-09T17:55:36.080Z,19.17
2024-05-09T17:58:05.242Z,12.00
2024-05-09T18:00:39.147Z,13.07
2024-05-09T18:03:11.350Z,12.88
2024-05-09T18:05:39.301Z,13.63
2024-05-09T18:08:07.301Z,14.23
2024-05-09T18:10:38.109Z,13.13
2024-05-09T18:13:08.708Z,16.45
2024-05-09T18:15:36.136Z,14.93
2024-05-09T18:18:03.845Z,8.18
2024-05-09T18:20:40.883Z,9.93
2024-05-09T18:23:11.832Z,12.52
2024-05-09T18:25:38.928Z,15.07
2024-05-09T18:28:06.738Z,19.27
2024-05-09T18:30:36.522Z,14.82
2024-05-09T18:33:07.081Z,15.48
2024-05-09T18:35:36.347Z,15.43
2024-05-09T18:38:05.490Z,15.73
2024-05-09T18:40:36.224Z,14.30
2024-05-09T18:43:07.352Z,13.15
2024-05-09T18:45:37.480Z,11.98
2024-05-09T18:48:06.233Z,15.95
2024-05-09T18:50:37.670Z,14.15
2024-05-09T18:53:07.364Z,11.93
2024-05-09T18:55:34.452Z,18.50
2024-05-09T18:58:01.503Z,12.50
2024-05-09T19:00:34.700Z,11.90
2024-05-09T19:03:10.119Z,12.57
2024-05-09T19:05:39.984Z,13.27
2024-05-09T19:08:07.950Z,10.23
2024-05-09T19:10:37.383Z,11.73
2024-05-09T19:13:09.068Z,14.55
2024-05-09T19:15:39.886Z,21.77
2024-05-09T19:18:08.676Z,23.65
2024-05-09T19:20:36.870Z,14.77
2024-05-09T19:23:06.440Z,9.55
2024-05-09T19:25:34.773Z,9.27
2024-05-09T19:28:02.114Z,18.52
2024-05-09T19:30:38.090Z,11.85
2024-05-09T19:33:09.220Z,10.75
2024-05-09T19:35:36.904Z,13.27
2024-05-09T19:38:03.998Z,14.00
2024-05-09T19:40:33.399Z,9.68
2024-05-09T19:43:03.280Z,10.05
2024-05-09T19:45:32.968Z,9.98
2024-05-09T19:48:00.832Z,13.20
2024-05-09T19:50:36.913Z,8.80
2024-05-09T19:53:10.031Z,11.23
2024-05-09T19:55:37.424Z,9.18
2024-05-09T19:58:07.356Z,11.75
2024-05-09T20:00:38.003Z,10.68
2024-05-09T20:03:07.792Z,9.25
2024-05-09T20:05:35.404Z,12.05
2024-05-09T20:08:03.408Z,9.40
2024-05-09T20:10:33.310Z,15.02
2024-05-09T20:13:06.783Z,10.50
2024-05-09T20:15:37.122Z,13.23
2024-05-09T20:18:05.628Z,10.40
2024-05-09T20:20:39.262Z,10.38
2024-05-09T20:23:12.555Z,10.75
2024-05-09T20:25:40.694Z,10.30
2024-05-09T20:28:08.064Z,11.00
2024-05-09T20:30:35.878Z,11.45
2024-05-09T20:33:06.153Z,10.98
2024-05-09T20:35:35.032Z,11.63
2024-05-09T20:38:03.383Z,12.63
2024-05-09T20:40:37.050Z,16.50
2024-05-09T20:43:10.330Z,18.15
2024-05-09T20:45:38.127Z,14.70
2024-05-09T20:48:06.597Z,13.65
2024-05-09T20:50:39.264Z,16.30
2024-05-09T20:53:11.748Z,13.52
2024-05-09T20:55:41.325Z,15.82
2024-05-09T20:58:10.790Z,14.80
2024-05-09T21:00:44.383Z,16.85
2024-05-09T21:03:15.579Z,16.90
2024-05-09T21:05:43.723Z,16.70
2024-05-09T21:08:10.757Z,22.33
2024-05-09T21:10:37.991Z,13.75
2024-05-09T21:13:06.234Z,16.73
2024-05-09T21:15:34.251Z,15.50
2024-05-09T21:18:01.366Z,13.95
2024-05-09T21:20:31.440Z,17.20
2024-05-09T21:23:00.642Z,14.82
2024-05-09T21:25:27.659Z,13.95
2024-05-09T21:27:54.983Z,14.15
2024-05-09T21:30:32.433Z,16.65
2024-05-09T21:33:09.534Z,15.98
2024-05-09T21:35:37.820Z,14.23
2024-05-09T21:38:04.913Z,14.23
2024-05-09T21:40:35.147Z,15.80
2024-05-09T21:43:04.740Z,14.73
2024-05-09T21:45:32.150Z,14.10
2024-05-09T21:47:59.263Z,13.88
2024-05-09T21:50:36.130Z,12.88
2024-05-09T21:53:07.489Z,15.43
2024-05-09T21:55:34.786Z,13.30
2024-05-09T21:58:02.732Z,12.75
2024-05-09T22:00:36.053Z,17.98
2024-05-09T22:03:06.871Z,14.15
2024-05-09T22:05:34.895Z,18.00
2024-05-09T22:08:02.335Z,18.70
2024-05-09T22:10:34.600Z,15.23
2024-05-09T22:13:05.318Z,14.98
2024-05-09T22:15:36.827Z,14.70
2024-05-09T22:18:05.925Z,16.73
2024-05-09T22:20:37.574Z,13.93
2024-05-09T22:23:07.806Z,13.35
2024-05-09T22:25:35.850Z,13.63
2024-05-09T22:28:03.623Z,13.48
2024-05-09T22:30:36.994Z,19.13
2024-05-09T22:33:07.871Z,13.05
2024-05-09T22:35:35.387Z,16.98
2024-05-09T22:38:05.163Z,14.20
2024-05-09T22:40:41.995Z,15.75
2024-05-09T22:43:17.877Z,13.18
2024-05-09T22:45:45.368Z,15.55
2024-05-09T22:48:12.863Z,16.30
2024-05-09T22:50:41.071Z,15.82
2024-05-09T22:53:08.020Z,16.58
2024-05-09T22:55:35.169Z,14.13
2024-05-09T22:58:02.206Z,15.82
2024-05-09T23:00:38.354Z,16.65
2024-05-09T23:03:05.588Z,15.88
2024-05-09T23:05:33.210Z,17.02
2024-05-09T23:08:03.396Z,16.42
2024-05-09T23:10:36.040Z,13.35
2024-05-09T23:13:06.857Z,15.45
2024-05-09T23:15:34.569Z,16.25
2024-05-09T23:18:02.088Z,14.43
2024-05-09T23:20:36.390Z,14.85
2024-05-09T23:23:10.531Z,14.55
2024-05-09T23:25:41.436Z,17.02
2024-05-09T23:28:09.766Z,14.68
2024-05-09T23:30:40.163Z,17.02
2024-05-09T23:33:11.489Z,14.10
2024-05-09T23:35:42.403Z,15.77
2024-05-09T23:38:09.512Z,20.33
2024-05-09T23:40:39.730Z,16.48
2024-05-09T23:43:11.977Z,14.27
2024-05-09T23:45:40.188Z,13.57
2024-05-09T23:48:07.867Z,16.95
2024-05-09T23:50:37.839Z,16.95
2024-05-09T23:53:08.201Z,14.70
2024-05-09T23:55:36.522Z,15.35
2024-05-09T23:58:03.654Z,14.98
